Date,TemperatureHighF,TemperatureAvgF,TemperatureLowF,DewpointHighF,DewpointAvgF,DewpointLowF,HumidityHigh,HumidityAvg,HumidityLow,PressureMaxIn,PressureMinIn,WindSpeedMaxMPH,WindSpeedAvgMPH,GustSpeedMaxMPH,PrecipitationSumIn
2013-2-1,47,46,45,47,46,45,100,99,94,30.42,30.34,18,10,20,0.00
2013-2-2,44,42,41,44,42,41,100,100,100,30.39,30.27,18,10,21,0.00
2013-2-3,47,44,40,46,44,40,100,98,92,30.30,30.22,18,13,21,0.00
2013-2-4,48,47,45,44,43,42,95,87,78,30.21,29.89,18,11,21,0.00
2013-2-5,49,47,45,44,43,42,94,87,79,29.90,29.83,33,22,37,0.00
2013-2-6,49,46,45,44,42,38,94,85,65,30.04,29.79,28,18,33,0.00
2013-2-7,47,44,42,41,38,36,90,80,64,30.18,29.79,34,17,38,0.00
2013-2-8,44,43,40,41,39,38,97,87,79,30.32,30.19,17,9,20,0.00
2013-2-9,45,43,41,43,40,37,100,91,74,30.34,30.27,7,3,8,0.00
2013-2-10,43,42,39,43,40,38,100,95,83,30.39,30.33,7,3,9,0.00
2013-2-11,46,44,42,45,42,39,99,90,77,30.36,30.33,11,6,13,0.00
2013-2-12,50,47,44,49,46,44,100,98,90,30.41,30.28,26,11,31,0.00
2013-2-13,49,46,44,47,45,42,100,95,88,30.49,30.31,11,5,13,0.00
2013-2-14,46,45,44,46,45,44,100,100,99,30.56,30.50,16,8,18,0.00
2013-2-15,48,46,44,47,45,44,100,99,93,30.55,30.21,14,10,15,0.00
2013-2-16,50,46,44,47,44,40,100,95,80,30.19,30.12,18,11,23,0.00
2013-2-17,44,42,40,40,38,37,93,85,75,30.25,30.13,14,8,16,0.00
2013-2-18,45,43,40,41,39,36,100,87,72,30.12,29.78,17,9,20,0.00
2013-2-19,47,43,40,40,38,36,92,81,66,30.01,29.75,20,10,22,0.00
2013-2-20,44,41,40,42,40,36,100,94,85,30.05,30.00,15,8,17,0.00
2013-2-21,44,43,42,44,42,40,100,96,90,30.07,30.01,30,18,33,0.00
2013-2-22,47,44,40,45,42,35,100,93,77,30.04,29.67,38,28,45,0.00
2013-2-23,46,43,39,39,37,35,90,81,69,30.37,29.90,15,10,17,0.00
2013-2-24,47,45,42,40,38,36,86,77,64,30.38,29.97,29,22,32,0.00
2013-2-25,50,45,41,42,37,32,93,75,52,30.29,29.87,31,20,34,0.00
2013-2-26,47,44,40,39,37,35,94,77,63,30.35,30.20,22,17,25,0.00
2013-2-27,46,44,42,45,42,37,100,94,77,30.31,30.21,25,8,28,0.00
2013-2-28,51,46,43,51,46,43,100,100,100,30.32,30.20,23,12,24,0.00